createdAt,value
2017-09-24T13:31:05.845Z,18.40
2017-09-24T13:33:32.356Z,20.17
2017-09-24T13:35:58.766Z,17.70
2017-09-24T13:38:25.222Z,19.30
2017-09-24T13:40:51.697Z,17.53
2017-09-24T13:43:20.195Z,18.40
2017-09-24T13:45:46.764Z,17.43
2017-09-24T13:48:13.239Z,15.20
2017-09-24T13:50:39.699Z,16.37
2017-09-24T13:53:06.164Z,17.10
2017-09-24T13:55:32.678Z,16.80
2017-09-24T13:57:59.151Z,15.60
2017-09-24T14:00:25.629Z,16.20
2017-09-24T14:02:52.822Z,16.80
2017-09-24T14:05:19.271Z,15.67
2017-09-24T14:07:46.529Z,14.53
2017-09-24T14:10:12.973Z,15.07
2017-09-24T14:12:40.141Z,17.80
2017-09-24T14:15:07.475Z,15.00
2017-09-24T14:17:33.847Z,15.57
2017-09-24T14:20:00.327Z,14.70
2017-09-24T14:22:26.794Z,15.17
2017-09-24T14:24:56.828Z,18.23
2017-09-24T14:27:23.297Z,16.80
2017-09-24T14:29:49.817Z,16.90
2017-09-24T14:32:16.297Z,16.50
2017-09-24T14:34:42.716Z,16.23
2017-09-24T14:37:09.903Z,15.40
2017-09-24T14:39:37.112Z,15.33
2017-09-24T14:42:03.497Z,15.83
2017-09-24T14:44:30.693Z,19.00
2017-09-24T14:46:57.861Z,16.97
2017-09-24T14:49:24.248Z,18.80
2017-09-24T14:51:51.450Z,14.90
2017-09-24T14:54:17.974Z,15.43
2017-09-24T14:56:44.403Z,17.83
2017-09-24T14:59:10.878Z,15.67
2017-09-24T15:01:37.364Z,18.33
2017-09-24T15:04:04.722Z,19.07
2017-09-24T15:06:31.135Z,18.33
2017-09-24T15:08:58.294Z,22.20
2017-09-24T15:11:25.525Z,19.50
2017-09-24T15:13:52.012Z,21.40
2017-09-24T15:16:18.453Z,21.20
2017-09-24T15:18:45.678Z,21.47
2017-09-24T15:21:12.202Z,18.67
2017-09-24T15:23:38.626Z,14.63
2017-09-24T15:26:05.040Z,12.30
2017-09-24T15:28:34.756Z,12.03
2017-09-24T15:31:01.885Z,13.40
2017-09-24T15:33:28.326Z,16.73
2017-09-24T15:35:54.710Z,15.43
2017-09-24T15:38:21.184Z,18.40
2017-09-24T15:40:49.422Z,18.67
2017-09-24T15:43:16.592Z,18.00
2017-09-24T15:45:43.085Z,19.07
2017-09-24T15:48:09.517Z,18.63
2017-09-24T15:50:35.881Z,19.23
2017-09-24T15:53:02.346Z,20.00
2017-09-24T15:55:28.721Z,21.53
2017-09-24T15:57:55.839Z,20.63
2017-09-24T16:00:22.214Z,21.53
2017-09-24T16:02:48.629Z,21.53
2017-09-24T16:05:15.057Z,22.00
2017-09-24T16:07:41.463Z,21.10
2017-09-24T16:10:07.871Z,19.17
2017-09-24T16:12:34.494Z,17.90
2017-09-24T16:15:00.920Z,21.40
2017-09-24T16:17:29.109Z,18.73
2017-09-24T16:19:55.544Z,23.50
2017-09-24T16:22:21.974Z,24.17
2017-09-24T16:24:48.401Z,25.20
2017-09-24T16:27:14.853Z,23.53
2017-09-24T16:29:41.290Z,28.40
2017-09-24T16:32:07.685Z,29.50
2017-09-24T16:34:34.827Z,27.13
2017-09-24T16:37:01.221Z,33.47
2017-09-24T16:39:28.367Z,28.37
2017-09-24T16:41:55.530Z,36.67
2017-09-24T16:44:22.665Z,34.67
2017-09-24T16:46:49.123Z,36.40
2017-09-24T16:49:15.516Z,37.40
2017-09-24T16:51:42.694Z,31.80
2017-09-24T16:54:09.813Z,29.60
2017-09-24T16:56:37.982Z,36.60
2017-09-24T16:59:04.362Z,41.43
2017-09-24T17:01:30.763Z,38.30
2017-09-24T17:03:57.176Z,42.17
2017-09-24T17:06:23.529Z,39.00
2017-09-24T17:08:50.689Z,40.60
2017-09-24T17:11:17.052Z,39.40
2017-09-24T17:13:44.230Z,41.93
2017-09-24T17:16:10.613Z,33.53
2017-09-24T17:18:37.281Z,34.00
2017-09-24T17:21:03.690Z,33.23
2017-09-24T17:23:30.127Z,31.97
2017-09-24T17:25:56.506Z,30.57
2017-09-24T17:28:22.940Z,35.00
2017-09-24T17:30:50.045Z,36.70
2017-09-24T17:33:16.480Z,38.07
2017-09-24T17:35:43.621Z,34.57
2017-09-24T17:38:10.084Z,38.23
2017-09-24T17:40:36.488Z,31.30
2017-09-24T17:43:02.925Z,30.67
2017-09-24T17:45:30.080Z,38.03
2017-09-24T17:47:56.492Z,32.97
2017-09-24T17:50:22.973Z,31.47
2017-09-24T17:52:50.150Z,37.77
2017-09-24T17:55:17.357Z,37.03
2017-09-24T17:57:43.773Z,35.67
2017-09-24T18:00:10.165Z,35.20
2017-09-24T18:02:36.509Z,36.23
2017-09-24T18:05:02.940Z,39.60
2017-09-24T18:07:29.253Z,49.47
2017-09-24T18:09:55.588Z,36.93
2017-09-24T18:12:21.947Z,46.73
2017-09-24T18:14:49.228Z,44.70
2017-09-24T18:17:15.604Z,43.57
2017-09-24T18:19:42.150Z,44.27
2017-09-24T18:22:08.546Z,45.27
2017-09-24T18:24:34.925Z,50.40
2017-09-24T18:27:01.285Z,53.47
2017-09-24T18:29:27.643Z,46.27
2017-09-24T18:31:53.989Z,43.57
2017-09-24T18:34:21.838Z,56.30
2017-09-24T18:36:48.177Z,51.33
2017-09-24T18:39:14.568Z,52.70
2017-09-24T18:41:40.905Z,46.00
2017-09-24T18:44:07.269Z,56.20
2017-09-24T18:46:34.348Z,52.70
2017-09-24T18:49:01.438Z,50.30
2017-09-24T18:51:27.773Z,56.67
2017-09-24T18:53:54.172Z,53.80
2017-09-24T18:56:21.265Z,58.17
2017-09-24T18:58:47.657Z,53.60
2017-09-24T19:01:14.042Z,45.80
2017-09-24T19:03:40.440Z,48.73
2017-09-24T19:06:06.833Z,48.70
2017-09-24T19:08:33.195Z,52.00
2017-09-24T19:10:59.569Z,46.80
2017-09-24T19:13:25.922Z,52.07
2017-09-24T19:15:53.042Z,40.93
2017-09-24T19:18:19.420Z,48.23
2017-09-24T19:20:45.978Z,48.03
2017-09-24T19:23:12.300Z,45.30
2017-09-24T19:25:38.667Z,57.57
2017-09-24T19:28:05.821Z,44.17
2017-09-24T19:30:32.186Z,45.57
2017-09-24T19:32:58.561Z,43.23
2017-09-24T19:35:24.914Z,45.57
2017-09-24T19:37:51.272Z,39.90
2017-09-24T19:40:17.641Z,45.53
2017-09-24T19:42:44.053Z,46.37
2017-09-24T19:45:11.930Z,49.23
2017-09-24T19:47:38.293Z,47.80
2017-09-24T19:50:04.633Z,46.63
2017-09-24T19:52:31.017Z,61.03
2017-09-24T19:54:57.413Z,47.20
2017-09-24T19:57:23.809Z,45.40
2017-09-24T19:59:50.200Z,39.63
2017-09-24T20:02:16.550Z,46.00
2017-09-24T20:04:43.682Z,51.30
2017-09-24T20:07:10.040Z,49.73
2017-09-24T20:09:36.389Z,49.07
2017-09-24T20:12:02.753Z,56.27
2017-09-24T20:14:29.116Z,53.47
2017-09-24T20:16:56.193Z,50.50
2017-09-24T20:19:22.574Z,62.13
2017-09-24T20:21:49.693Z,49.00
2017-09-24T20:24:16.771Z,50.77
2017-09-24T20:26:43.112Z,46.60
2017-09-24T20:29:09.456Z,52.70
2017-09-24T20:31:35.836Z,58.53
2017-09-24T20:34:03.169Z,47.27
2017-09-24T20:36:29.586Z,47.93
2017-09-24T20:38:55.989Z,52.93
2017-09-24T20:41:22.347Z,45.77
2017-09-24T20:43:48.684Z,42.17
2017-09-24T20:46:15.057Z,44.33
2017-09-24T20:48:41.479Z,46.00
2017-09-24T20:51:07.854Z,58.77
2017-09-24T20:53:34.389Z,48.27
2017-09-24T20:56:00.941Z,61.33
2017-09-24T20:58:28.094Z,59.00
2017-09-24T21:00:54.521Z,52.37
2017-09-24T21:03:20.991Z,50.87
2017-09-24T21:05:47.404Z,45.47
2017-09-24T21:08:13.878Z,37.50
2017-09-24T21:10:40.999Z,35.33
2017-09-24T21:13:07.341Z,38.53
2017-09-24T21:15:33.733Z,40.60
2017-09-24T21:18:00.837Z,31.30
2017-09-24T21:20:27.217Z,33.50
2017-09-24T21:22:53.600Z,35.00
2017-09-24T21:25:19.965Z,33.97
2017-09-24T21:27:46.339Z,32.43
2017-09-24T21:30:12.753Z,28.47
2017-09-24T21:32:39.117Z,31.70
2017-09-24T21:35:07.026Z,30.60
2017-09-24T21:37:33.419Z,30.00
2017-09-24T21:39:59.782Z,32.37
2017-09-24T21:42:26.273Z,27.90
2017-09-24T21:44:52.621Z,30.30
2017-09-24T21:47:18.963Z,31.60
2017-09-24T21:49:45.365Z,28.40
2017-09-24T21:52:12.464Z,30.57
2017-09-24T21:54:39.614Z,29.00
2017-09-24T21:57:06.000Z,23.70
2017-09-24T21:59:32.389Z,35.50
2017-09-24T22:01:58.749Z,30.00
2017-09-24T22:04:25.123Z,29.10
2017-09-24T22:06:51.483Z,28.47
2017-09-24T22:09:17.879Z,25.47
2017-09-24T22:11:44.223Z,23.90
2017-09-24T22:14:10.556Z,29.03
2017-09-24T22:16:36.935Z,31.50
2017-09-24T22:19:03.306Z,32.87
2017-09-24T22:21:30.439Z,31.77
2017-09-24T22:23:58.300Z,30.13
2017-09-24T22:26:24.727Z,29.07
2017-09-24T22:28:51.805Z,27.30
2017-09-24T22:31:18.973Z,30.07
2017-09-24T22:33:45.311Z,34.13
2017-09-24T22:36:11.702Z,34.43
2017-09-24T22:38:38.049Z,31.03
2017-09-24T22:41:04.381Z,45.40
2017-09-24T22:43:31.513Z,39.60
2017-09-24T22:45:57.848Z,41.27
2017-09-24T22:48:24.202Z,31.47
2017-09-24T22:50:50.649Z,37.33
2017-09-24T22:53:17.111Z,32.33
2017-09-24T22:55:43.432Z,40.57
2017-09-24T22:58:09.790Z,41.03
2017-09-24T23:00:36.117Z,41.73
2017-09-24T23:03:02.496Z,37.33
2017-09-24T23:05:28.833Z,33.07
2017-09-24T23:07:55.152Z,37.50
2017-09-24T23:10:21.504Z,35.20
2017-09-24T23:12:47.833Z,31.03
2017-09-24T23:15:14.193Z,34.60
2017-09-24T23:17:40.753Z,36.97
2017-09-24T23:20:07.112Z,30.00
2017-09-24T23:22:33.482Z,33.90
2017-09-24T23:25:00.574Z,34.23
2017-09-24T23:27:26.915Z,42.67
2017-09-24T23:29:53.252Z,43.90
2017-09-24T23:32:19.569Z,32.00
2017-09-24T23:34:45.921Z,35.33
2017-09-24T23:37:13.012Z,47.77
2017-09-24T23:39:39.336Z,49.50
2017-09-24T23:42:05.708Z,48.40
2017-09-24T23:44:32.045Z,38.47
2017-09-24T23:46:58.384Z,41.40
2017-09-24T23:49:24.749Z,38.00
2017-09-24T23:51:52.659Z,49.47
2017-09-24T23:54:19.736Z,39.20
2017-09-24T23:56:46.828Z,43.70
2017-09-24T23:59:13.189Z,48.87
